Time;durP1;ratioP1;P1;durP2;ratioP2;P2;SDS_P1;SDS_P2;PMS_P1;PMS_P2;Temp;Humidity;BMP_temperature;BMP_pressure;BME280_temperature;BME280_humidity;BME280_pressure;Samples;Min_cycle;Max_cycle;Signal;HPM_P1;HPM_P2
2023/09/12 00:01:06;;;;;;;8.43;5.28;;;24.10;99.90;;;24.66;100.00;100577.09;5204503;28;20046;-52
2023/09/12 00:03:39;;;;;;;7.63;4.78;;;24.10;99.90;;;24.61;100.00;100575.41;5204329;28;20041;-53
2023/09/12 00:06:12;;;;;;;7.35;5.28;;;24.10;99.90;;;24.57;100.00;100576.41;5204949;28;20142;-53
2023/09/12 00:08:47;;;;;;;8.75;5.45;;;24.10;99.90;;;24.56;100.00;100573.78;5200750;28;20488;-53
2023/09/12 00:11:20;;;;;;;7.82;5.50;;;24.00;99.90;;;24.54;100.00;100584.50;5197217;28;20053;-53
2023/09/12 00:13:53;;;;;;;9.00;4.95;;;24.00;99.90;;;24.52;100.00;100586.34;5200460;28;20045;-54
2023/09/12 00:16:25;;;;;;;7.68;4.95;;;24.00;99.90;;;24.49;100.00;100591.72;5200793;28;20084;-52
2023/09/12 00:18:59;;;;;;;9.38;5.22;;;24.00;99.90;;;24.49;100.00;100593.50;5215453;28;20455;-53
2023/09/12 00:21:31;;;;;;;8.55;5.35;;;24.00;99.90;;;24.44;100.00;100592.75;5204426;28;20056;-53
2023/09/12 00:24:04;;;;;;;8.43;5.43;;;24.00;99.90;;;24.42;100.00;100583.94;5203666;28;20527;-53
2023/09/12 00:26:36;;;;;;;7.63;5.05;;;23.90;99.90;;;24.42;100.00;100583.94;5200508;28;20042;-52
2023/09/12 00:29:08;;;;;;;8.55;5.05;;;23.90;99.90;;;24.38;100.00;100579.59;5219459;28;20092;-53
2023/09/12 00:31:41;;;;;;;8.60;5.22;;;23.90;99.90;;;24.31;100.00;100574.38;5200319;28;20057;-54
2023/09/12 00:34:18;;;;;;;6.82;4.30;;;23.80;99.90;;;24.28;100.00;100582.47;5218622;28;20041;-52
2023/09/12 00:36:51;;;;;;;7.95;4.82;;;23.80;99.90;;;24.25;100.00;100581.63;5200214;28;20049;-52
2023/09/12 00:39:23;;;;;;;9.43;5.63;;;23.70;99.90;;;24.19;100.00;100581.78;5200385;28;20037;-53
2023/09/12 00:41:55;;;;;;;10.48;5.43;;;23.70;99.90;;;24.11;100.00;100584.66;5217215;28;20053;-54
2023/09/12 00:44:28;;;;;;;8.88;4.95;;;23.60;99.90;;;24.05;100.00;100574.16;5199935;28;20037;-53
2023/09/12 00:47:01;;;;;;;7.78;4.75;;;23.60;99.90;;;24.01;100.00;100570.69;5202476;28;20045;-51
2023/09/12 00:49:39;;;;;;;7.32;4.63;;;23.50;99.90;;;23.99;100.00;100567.16;5203887;28;20044;-52
2023/09/12 00:52:12;;;;;;;6.47;4.32;;;23.50;99.90;;;23.99;100.00;100563.63;5203365;28;20052;-53
2023/09/12 00:54:45;;;;;;;7.88;4.40;;;23.50;99.90;;;23.97;100.00;100561.03;5206008;28;20045;-53
2023/09/12 00:57:17;;;;;;;7.32;4.15;;;23.40;99.90;;;23.95;100.00;100557.53;5203343;28;20053;-53
2023/09/12 00:59:50;;;;;;;5.55;3.95;;;23.40;99.90;;;23.92;100.00;100552.25;5199483;28;20042;-53
2023/09/12 01:02:23;;;;;;;9.20;4.40;;;23.40;99.90;;;23.88;100.00;100553.28;5196752;28;20430;-53
2023/09/12 01:05:00;;;;;;;8.55;4.72;;;23.30;99.90;;;23.80;100.00;100552.59;5219694;28;20111;-52
2023/09/12 01:07:33;;;;;;;7.35;4.47;;;23.30;99.90;;;23.70;100.00;100559.00;5199821;28;20046;-53
2023/09/12 01:10:07;;;;;;;6.55;4.05;;;23.20;99.90;;;23.64;100.00;100567.13;5217342;28;20060;-52
2023/09/12 01:12:40;;;;;;;6.93;4.05;;;23.10;99.90;;;23.59;100.00;100555.69;5199074;28;20057;-52
2023/09/12 01:15:14;;;;;;;7.00;4.43;;;23.10;99.90;;;23.52;100.00;100568.25;5201610;28;20041;-53
2023/09/12 01:17:47;;;;;;;7.47;4.57;;;23.00;99.90;;;23.43;100.00;100568.47;5203926;28;20460;-52
2023/09/12 01:20:25;;;;;;;7.68;3.92;;;22.90;99.90;;;23.37;100.00;100558.81;5202353;28;20045;-52
2023/09/12 01:23:22;;;;;;;7.35;4.00;;;22.80;99.90;;;23.33;100.00;100562.44;5199719;28;20045;-52
2023/09/12 01:26:24;;;;;;;6.50;3.83;;;22.80;99.90;;;23.33;100.00;100557.13;5220337;28;20053;-53
2023/09/12 01:28:59;;;;;;;7.53;3.78;;;22.80;99.90;;;23.32;100.00;100568.66;5196735;28;20042;-52
2023/09/12 01:31:33;;;;;;;7.80;4.30;;;22.80;99.90;;;23.24;100.00;100573.28;5203005;28;20041;-52
2023/09/12 01:34:10;;;;;;;6.45;3.85;;;22.70;99.90;;;23.15;100.00;100570.81;5200629;28;20045;-53
2023/09/12 01:36:43;;;;;;;5.75;3.83;;;22.60;99.90;;;23.08;100.00;100569.16;5199373;28;20050;-52
2023/09/12 01:39:15;;;;;;;7.65;5.00;;;22.60;99.90;;;23.04;100.00;100564.84;5216879;28;20041;-52
2023/09/12 01:41:49;;;;;;;5.18;3.70;;;22.50;99.90;;;23.05;100.00;100566.59;5198902;28;20068;-52
2023/09/12 01:44:25;;;;;;;4.82;3.05;;;22.50;99.90;;;23.06;100.00;100571.88;5218925;28;20189;-53
2023/09/12 01:47:02;;;;;;;5.60;3.40;;;22.50;99.90;;;23.07;100.00;100568.28;5199345;28;20079;-52
2023/09/12 01:49:35;;;;;;;4.97;3.28;;;22.50;99.90;;;23.08;100.00;100582.47;5203223;28;20060;-52
2023/09/12 01:52:08;;;;;;;6.25;3.35;;;22.50;99.90;;;23.06;100.00;100573.66;5218494;28;20068;-52
2023/09/12 01:54:42;;;;;;;6.03;3.58;;;22.50;99.90;;;23.01;100.00;100576.41;5199029;28;20146;-53
2023/09/12 01:57:15;;;;;;;;;;;22.50;99.90;;;22.95;100.00;100584.47;5216708;28;20041;-53
2023/09/12 01:59:49;;;;;;;5.90;3.13;;;22.40;99.90;;;22.91;100.00;100565.09;5202549;28;20369;-53
2023/09/12 02:02:21;;;;;;;4.35;3.03;;;22.40;99.90;;;22.90;100.00;100568.66;5198100;28;20495;-52
2023/09/12 02:05:08;;;;;;;5.28;3.50;;;22.30;99.90;;;22.87;100.00;100558.06;5198221;28;20092;-53
2023/09/12 02:07:42;;;;;;;;;;;22.30;99.90;;;22.84;100.00;100560.75;5199153;28;20061;-52
2023/09/12 02:10:15;;;;;;;5.05;3.20;;;22.30;99.90;;;22.81;100.00;100559.94;5215337;28;20298;-53
2023/09/12 02:12:48;;;;;;;5.15;3.30;;;22.20;99.90;;;22.79;100.00;100564.41;5201944;28;20045;-51
2023/09/12 02:15:22;;;;;;;9.55;3.53;;;22.20;99.90;;;22.76;100.00;100573.31;5202039;28;20049;-53
2023/09/12 02:17:55;;;;;;;5.47;3.40;;;22.20;99.90;;;22.75;100.00;100568.88;5202504;28;20048;-54
2023/09/12 02:20:27;;;;;;;4.47;3.15;;;22.20;99.90;;;22.74;100.00;100567.13;5202251;28;20037;-52
2023/09/12 02:23:02;;;;;;;4.07;2.97;;;22.20;99.90;;;22.72;100.00;100568.97;5201092;28;20053;-50
2023/09/12 02:25:35;;;;;;;5.15;3.08;;;22.20;99.90;;;22.70;100.00;100568.13;5198844;28;20523;-53
2023/09/12 02:28:08;;;;;;;7.05;3.42;;;22.10;99.90;;;22.68;100.00;100568.13;5215836;28;20091;-52
2023/09/12 02:30:45;;;;;;;5.85;3.40;;;22.10;99.90;;;22.67;100.00;100576.13;5197931;28;20042;-52
2023/09/12 02:33:17;;;;;;;5.10;3.13;;;22.10;99.90;;;22.63;100.00;100582.44;5215989;28;20060;-52
2023/09/12 02:35:50;;;;;;;6.07;3.88;;;22.10;99.90;;;22.62;100.00;100591.28;5202113;28;20056;-53
2023/09/12 02:38:22;;;;;;;5.20;3.40;;;22.10;99.90;;;22.58;100.00;100589.59;5200990;28;20049;-52
2023/09/12 02:40:55;;;;;;;7.68;3.70;;;22.00;99.90;;;22.56;100.00;100591.38;5202050;28;20341;-54
2023/09/12 02:43:28;;;;;;;6.40;3.75;;;22.00;99.90;;;22.52;100.00;100576.41;5200952;28;20072;-52
2023/09/12 02:46:03;;;;;;;8.13;3.47;;;22.00;99.90;;;22.47;100.00;100579.16;5201497;28;20041;-53
2023/09/12 02:48:35;;;;;;;5.72;3.10;;;21.90;99.90;;;22.44;100.00;100582.75;5197709;28;20046;-52
2023/09/12 02:51:08;;;;;;;5.85;3.42;;;21.90;99.90;;;22.42;100.00;100583.66;5212461;28;20041;-53
2023/09/12 02:53:40;;;;;;;6.70;3.40;;;21.90;99.90;;;22.40;100.00;100573.06;5197313;28;20046;-52
2023/09/12 02:56:13;;;;;;;4.88;3.20;;;21.80;99.90;;;22.40;100.00;100574.84;5215502;28;20067;-52
2023/09/12 02:58:47;;;;;;;5.13;3.20;;;21.90;99.90;;;22.39;100.00;100566.00;5197835;28;20144;-52
2023/09/12 03:01:22;;;;;;;5.18;3.35;;;21.80;99.90;;;22.39;100.00;100573.09;5216372;28;20430;-52
2023/09/12 03:03:54;;;;;;;4.65;3.00;;;21.80;99.90;;;22.36;100.00;100559.84;5201408;28;20065;-53
2023/09/12 03:06:27;;;;;;;4.93;3.20;;;21.80;99.90;;;22.33;100.00;100560.81;5201309;28;20072;-52
2023/09/12 03:09:02;;;;;;;5.72;3.08;;;21.80;99.90;;;22.34;100.00;100551.06;5197709;28;20042;-53
2023/09/12 03:11:35;;;;;;;4.30;3.17;;;21.80;99.90;;;22.34;100.00;100557.22;5206336;28;20056;-54
2023/09/12 03:14:07;;;;;;;5.55;3.47;;;21.80;99.90;;;22.34;100.00;100559.00;5197118;28;20054;-52
2023/09/12 03:16:41;;;;;;;5.18;2.90;;;21.80;99.90;;;22.33;100.00;100557.28;5197367;28;20045;-52
2023/09/12 03:19:14;;;;;;;4.57;2.90;;;21.80;99.90;;;22.32;100.00;100556.41;5214740;28;20050;-53
2023/09/12 03:21:46;;;;;;;4.55;2.75;;;21.80;99.90;;;22.33;100.00;100558.16;5200851;28;20045;-52
2023/09/12 03:24:21;;;;;;;5.85;3.10;;;21.80;99.90;;;22.33;100.00;100557.28;5198931;28;20050;-53
2023/09/12 03:26:56;;;;;;;3.60;2.70;;;21.80;99.90;;;22.33;100.00;100555.47;5197467;28;20052;-52
2023/09/12 03:29:29;;;;;;;3.75;2.65;;;21.80;99.90;;;22.33;100.00;100549.31;5216461;28;20434;-52
2023/09/12 03:32:03;;;;;;;5.15;2.88;;;21.80;99.90;;;22.30;100.00;100544.94;5197084;28;20053;-53
2023/09/12 03:34:36;;;;;;;3.80;2.85;;;21.80;99.90;;;22.27;100.00;100533.47;5193947;28;20046;-52
2023/09/12 03:37:09;;;;;;;3.40;2.58;;;21.70;99.90;;;22.26;100.00;100547.66;5201141;28;20469;-53
2023/09/12 03:39:42;;;;;;;3.55;2.40;;;21.70;99.90;;;22.26;100.00;100547.66;5196800;28;20034;-53
2023/09/12 03:42:15;;;;;;;3.03;2.28;;;21.70;99.90;;;22.27;100.00;100544.97;5214689;28;20049;-52
2023/09/12 03:44:47;;;;;;;3.20;2.38;;;21.70;99.90;;;22.26;100.00;100543.22;5197136;28;20100;-52
2023/09/12 03:47:21;;;;;;;3.55;2.42;;;21.70;99.90;;;22.25;100.00;100549.44;5215652;28;20050;-52
2023/09/12 03:49:53;;;;;;;2.97;2.13;;;21.70;99.90;;;22.25;100.00;100560.06;5201075;28;20040;-50
2023/09/12 03:52:26;;;;;;;3.22;2.13;;;21.70;99.90;;;22.24;100.00;100549.47;5200372;28;20477;-52
2023/09/12 03:55:00;;;;;;;2.95;1.90;;;21.70;99.90;;;22.22;100.00;100552.13;5193846;28;20213;-52
2023/09/12 03:57:32;;;;;;;;;;;21.60;99.90;;;22.21;100.00;100553.91;5200580;28;20068;-52
2023/09/12 04:00:09;;;;;;;3.38;2.05;;;21.70;99.90;;;22.19;100.00;100553.06;5200631;28;19929;-50
2023/09/12 04:02:53;;;;;;;3.28;2.30;;;21.60;99.90;;;22.18;100.00;100545.13;5194709;28;20068;-52
2023/09/12 04:05:26;;;;;;;3.80;2.42;;;21.60;99.90;;;22.15;100.00;100542.50;5200891;28;20054;-52
2023/09/12 04:07:59;;;;;;;4.15;2.50;;;21.60;99.90;;;22.11;100.00;100535.53;5201293;28;20541;-52
2023/09/12 04:10:32;;;;;;;3.90;2.50;;;21.60;99.90;;;22.09;100.00;100545.28;5199941;28;20038;-53
2023/09/12 04:13:05;;;;;;;3.63;2.28;;;21.60;99.90;;;22.06;100.00;100540.00;5196352;28;20049;-51
2023/09/12 04:15:37;;;;;;;3.70;2.58;;;21.60;99.90;;;22.06;100.00;100545.31;5193425;28;20107;-51
2023/09/12 04:18:11;;;;;;;3.80;2.60;;;21.60;99.90;;;22.06;100.00;100545.31;5197246;28;20045;-51
2023/09/12 04:20:44;;;;;;;4.38;2.78;;;21.50;99.90;;;22.06;100.00;100542.66;5196739;28;20160;-51
2023/09/12 04:23:16;;;;;;;4.05;2.40;;;21.50;99.90;;;22.05;100.00;100533.81;5213366;28;20053;-51
2023/09/12 04:25:49;;;;;;;2.95;2.38;;;21.50;99.90;;;22.03;100.00;100524.09;5196605;28;20057;-50
2023/09/12 04:28:21;;;;;;;3.90;2.53;;;21.50;99.90;;;22.00;100.00;100519.72;5218082;28;20494;-51
2023/09/12 04:31:03;;;;;;;4.47;2.58;;;21.50;99.90;;;21.99;100.00;100517.13;5200136;28;20044;-50
2023/09/12 04:33:40;;;;;;;3.88;2.40;;;21.50;99.90;;;21.99;100.00;100517.13;5219910;28;20476;-50
2023/09/12 04:36:12;;;;;;;3.63;2.00;;;21.50;99.90;;;21.97;100.00;100509.16;5187748;28;20494;-51
2023/09/12 04:38:45;;;;;;;3.20;2.22;;;21.50;99.90;;;21.97;100.00;100502.97;5191314;28;20135;-51
2023/09/12 04:41:17;;;;;;;5.78;2.78;;;21.40;99.90;;;21.97;100.00;100500.31;5201718;28;20168;-51
2023/09/12 04:43:49;;;;;;;3.05;2.25;;;21.50;99.90;;;21.99;100.00;100495.88;5199637;28;20049;-51
2023/09/12 04:46:22;;;;;;;4.47;2.90;;;21.50;99.90;;;22.02;100.00;100485.19;5218213;28;20050;-50
2023/09/12 04:48:56;;;;;;;4.00;2.88;;;21.50;99.90;;;22.06;100.00;100482.47;5199870;28;20055;-51
2023/09/12 04:51:28;;;;;;;3.45;2.42;;;21.50;99.90;;;22.10;100.00;100494.81;5217285;28;20096;-50
2023/09/12 04:54:00;;;;;;;3.15;2.45;;;21.60;99.90;;;22.10;100.00;100488.63;5199645;28;20104;-52
2023/09/12 04:56:33;;;;;;;4.38;2.92;;;21.50;99.90;;;22.09;100.00;100500.16;5219367;28;20136;-51
2023/09/12 04:59:06;;;;;;;3.90;2.70;;;21.60;99.90;;;22.08;100.00;100495.72;5199782;28;20088;-50
2023/09/12 05:01:39;;;;;;;4.05;3.00;;;21.50;99.90;;;22.08;100.00;100501.91;5219771;28;20041;-51
2023/09/12 05:04:13;;;;;;;5.35;3.20;;;21.60;99.90;;;22.07;100.00;100507.25;5199378;28;20046;-51
2023/09/12 05:06:46;;;;;;;4.40;3.17;;;21.50;99.90;;;22.07;100.00;100509.91;5199708;28;20144;-51
2023/09/12 05:09:19;;;;;;;3.55;2.55;;;21.60;99.90;;;22.05;100.00;100511.72;5216808;28;20045;-51
2023/09/12 05:11:51;;;;;;;5.35;2.75;;;21.50;99.90;;;22.07;100.00;100515.19;5199445;28;20053;-52
2023/09/12 05:14:24;;;;;;;4.97;2.95;;;21.50;99.90;;;22.08;100.00;100532.88;5215362;28;20080;-51
2023/09/12 05:16:56;;;;;;;4.43;2.80;;;21.60;99.90;;;22.07;100.00;100533.78;5203562;28;20049;-51
2023/09/12 05:19:32;;;;;;;4.72;2.90;;;21.50;99.90;;;22.05;100.00;100535.59;5203103;28;20041;-51
2023/09/12 05:22:05;;;;;;;4.50;2.80;;;21.50;99.90;;;22.01;100.00;100536.53;5198916;28;20418;-51
2023/09/12 05:24:37;;;;;;;4.15;2.97;;;21.50;99.90;;;21.99;100.00;100538.34;5218979;28;20084;-50
2023/09/12 05:27:10;;;;;;;5.65;3.22;;;21.50;99.90;;;21.97;100.00;100556.03;5199870;28;20045;-51
2023/09/12 05:29:42;;;;;;;4.72;3.03;;;21.50;99.90;;;21.94;100.00;100562.28;5219776;28;20077;-51
2023/09/12 05:32:16;;;;;;;3.50;2.67;;;21.40;99.90;;;21.90;100.00;100561.44;5202052;28;20060;-51
2023/09/12 05:34:50;;;;;;;4.85;2.75;;;21.40;99.90;;;21.89;100.00;100577.41;5203233;28;20041;-51
2023/09/12 05:37:26;;;;;;;4.65;3.13;;;21.40;99.90;;;21.88;100.00;100581.84;5199714;28;20061;-50
2023/09/12 05:39:59;;;;;;;5.35;3.00;;;21.40;99.90;;;21.85;100.00;100589.84;5202994;28;20073;-52
2023/09/12 05:42:31;;;;;;;4.05;2.80;;;21.40;99.90;;;21.84;100.00;100590.75;5200813;28;20046;-50
2023/09/12 05:45:04;;;;;;;4.18;2.83;;;21.40;99.90;;;21.84;100.00;100593.41;5202978;28;20051;-51
2023/09/12 05:47:37;;;;;;;5.55;3.17;;;21.40;99.90;;;21.85;100.00;100584.53;5201909;28;20443;-51
2023/09/12 05:50:11;;;;;;;4.35;2.30;;;21.40;99.90;;;21.86;100.00;100588.06;5202771;28;20427;-51
2023/09/12 05:52:43;;;;;;;5.75;3.25;;;21.40;99.90;;;21.87;100.00;100590.69;5202575;28;20045;-51
2023/09/12 05:55:18;;;;;;;5.53;3.38;;;21.30;99.90;;;21.89;100.00;100586.22;5198695;28;20096;-51
2023/09/12 05:57:52;;;;;;;4.35;2.83;;;21.40;99.90;;;21.94;100.00;100584.41;5199114;28;20088;-50
2023/09/12 06:00:26;;;;;;;5.32;3.33;;;21.40;99.90;;;22.02;100.00;100580.75;5208312;28;20046;-51
2023/09/12 06:02:59;;;;;;;7.30;3.53;;;21.40;99.90;;;22.09;100.00;100587.75;5202546;28;20053;-50
2023/09/12 06:05:33;;;;;;;7.00;3.72;;;21.50;99.90;;;22.13;100.00;100586.81;5200279;28;20092;-50
2023/09/12 06:08:06;;;;;;;4.45;3.33;;;21.60;99.90;;;22.19;100.00;100589.38;5202482;28;20057;-50
2023/09/12 06:10:38;;;;;;;6.07;3.53;;;21.60;99.90;;;22.26;100.00;100596.31;5194018;28;20510;-51
2023/09/12 06:13:11;;;;;;;4.18;3.10;;;21.70;99.90;;;22.29;100.00;100596.25;5201692;28;20053;-50
2023/09/12 06:15:43;;;;;;;5.50;3.70;;;21.70;99.90;;;22.34;100.00;100589.09;5202077;28;20114;-50
2023/09/12 06:18:15;;;;;;;5.72;3.75;;;21.80;99.90;;;22.40;100.00;100585.47;5201922;28;20423;-50
2023/09/12 06:20:52;;;;;;;5.78;3.70;;;21.80;99.90;;;22.50;100.00;100583.53;5194208;28;20403;-51
2023/09/12 06:23:24;;;;;;;5.57;3.58;;;21.90;99.90;;;22.72;100.00;100591.09;5198603;28;20049;-51
2023/09/12 06:25:57;;;;;;;6.13;3.88;;;22.10;99.90;;;22.94;100.00;100591.59;5190240;28;20046;-51
2023/09/12 06:28:31;;;;;;;6.75;3.85;;;22.30;99.90;;;23.09;100.00;100600.19;5215855;28;20071;-51
2023/09/12 06:31:03;;;;;;;6.60;4.40;;;22.40;99.90;;;23.14;100.00;100603.59;5198606;28;20133;-51
2023/09/12 06:33:35;;;;;;;6.32;4.13;;;22.50;99.90;;;23.17;100.00;100614.19;5216460;28;20057;-51
2023/09/12 06:36:09;;;;;;;5.30;4.15;;;22.50;99.90;;;23.21;100.00;100618.53;5197858;28;20061;-50
2023/09/12 06:38:41;;;;;;;6.35;4.00;;;22.60;99.90;;;23.33;100.00;100610.31;5217450;28;20049;-50
2023/09/12 06:41:14;;;;;;;6.90;3.90;;;22.70;99.90;;;23.58;100.00;100609.81;5201627;28;20308;-51
2023/09/12 06:43:46;;;;;;;6.50;4.15;;;22.80;99.90;;;23.85;100.00;100608.34;5201062;28;20053;-50
2023/09/12 06:46:18;;;;;;;5.78;3.97;;;23.00;99.90;;;24.02;100.00;100612.38;5201510;28;20064;-51
2023/09/12 06:48:51;;;;;;;5.85;3.80;;;23.20;99.90;;;24.19;100.00;100608.41;5193741;28;20413;-52
2023/09/12 06:51:26;;;;;;;6.60;3.92;;;23.40;99.90;;;24.75;100.00;100603.50;5200638;28;20043;-51
2023/09/12 06:53:59;;;;;;;6.55;3.83;;;23.70;99.90;;;25.74;100.00;100606.03;5201225;28;20494;-52
2023/09/12 06:56:32;;;;;;;7.18;4.35;;;24.40;99.90;;;26.89;100.00;100613.84;5199189;28;20053;-51
2023/09/12 06:59:05;;;;;;;5.90;4.15;;;25.30;99.90;;;27.96;100.00;100623.22;5197649;28;20056;-51
2023/09/12 07:01:37;;;;;;;6.93;4.38;;;26.20;99.90;;;28.76;100.00;100612.81;5214801;28;20511;-51
2023/09/12 07:04:09;;;;;;;5.90;3.80;;;27.00;99.90;;;29.11;97.26;100618.44;5196664;28;20054;-51
2023/09/12 07:06:43;;;;;;;4.95;3.20;;;27.50;99.90;;;29.72;93.97;100615.66;5215652;28;20041;-52
2023/09/12 07:09:20;;;;;;;;;;;28.00;99.90;;;30.37;90.27;100614.28;5194344;28;20454;-52
2023/09/12 07:11:53;;;;;;;5.85;3.03;;;28.50;99.80;;;30.78;86.94;100606.84;5193303;28;20334;-52
2023/09/12 07:14:25;;;;;;;6.60;3.38;;;29.00;98.50;;;31.13;85.02;100603.22;5197163;28;20448;-52
2023/09/12 07:16:57;;;;;;;4.55;3.00;;;29.40;97.50;;;31.52;83.43;100598.38;5201552;28;20441;-54
2023/09/12 07:19:33;;;;;;;5.47;3.13;;;29.70;96.70;;;31.84;82.22;100601.13;5200697;28;20084;-53
2023/09/12 07:22:07;;;;;;;5.18;3.10;;;30.00;96.00;;;32.11;80.70;100602.25;5197278;28;20038;-53
2023/09/12 07:24:39;;;;;;;4.05;3.00;;;30.30;95.20;;;32.28;79.00;100595.03;5215885;28;20060;-53
2023/09/12 07:27:11;;;;;;;7.85;3.08;;;30.40;94.20;;;32.46;77.48;100599.34;5201305;28;20665;-53
2023/09/12 07:29:44;;;;;;;5.43;2.90;;;30.60;93.20;;;32.42;76.99;100597.78;5200882;28;20045;-53
2023/09/12 07:32:16;;;;;;;4.15;2.60;;;30.60;92.60;;;32.33;77.20;100596.50;5200561;28;20049;-52
2023/09/12 07:34:49;;;;;;;4.00;2.80;;;30.60;92.40;;;32.62;76.52;100608.25;5200903;28;20410;-52
2023/09/12 07:37:26;;;;;;;4.50;2.80;;;30.80;92.10;;;32.88;75.31;100601.31;5196717;28;20044;-53
2023/09/12 07:39:58;;;;;;;4.18;2.90;;;31.00;91.40;;;33.10;74.58;100600.00;5193704;28;20053;-53
2023/09/12 07:42:31;;;;;;;3.35;2.70;;;31.20;91.00;;;33.35;73.27;100605.59;5200390;28;20047;-53
2023/09/12 07:45:04;;;;;;;5.15;2.88;;;31.40;90.30;;;33.51;72.45;100610.91;5196857;28;20085;-53
2023/09/12 07:47:39;;;;;;;5.00;2.83;;;31.50;89.50;;;33.69;72.41;100614.28;5215136;28;20474;-53
2023/09/12 07:50:11;;;;;;;5.35;2.88;;;31.60;89.10;;;33.89;71.56;100611.13;5196824;28;20061;-53
2023/09/12 07:52:45;;;;;;;6.20;3.30;;;31.80;88.10;;;34.17;70.33;100612.06;5215441;28;20111;-53
2023/09/12 07:55:17;;;;;;;;;;;32.10;86.80;;;34.31;70.28;100616.56;5201442;28;20045;-53
2023/09/12 07:57:50;;;;;;;5.70;3.58;;;32.20;86.10;;;34.22;70.24;100605.38;5200753;28;19925;-53
2023/09/12 08:00:23;;;;;;;6.13;3.53;;;32.20;85.50;;;34.19;69.99;100602.88;5197232;28;20506;-53
2023/09/12 08:02:55;;;;;;;4.03;2.85;;;32.20;84.90;;;34.16;70.47;100613.03;5212978;28;20045;-52
2023/09/12 08:05:31;;;;;;;7.25;3.47;;;32.20;85.00;;;33.93;71.13;100617.25;5196140;28;20560;-53
2023/09/12 08:08:05;;;;;;;8.80;3.50;;;32.00;85.20;;;33.55;71.86;100615.16;5205311;28;20104;-53
2023/09/12 08:10:37;;;;;;;5.03;3.10;;;31.80;85.50;;;33.41;72.22;100617.88;5201917;28;20049;-53
2023/09/12 08:13:10;;;;;;;3.53;2.88;;;31.60;85.80;;;33.47;72.98;100620.19;5204160;28;20499;-53
2023/09/12 08:15:42;;;;;;;5.18;3.00;;;31.60;86.50;;;33.62;72.02;100621.91;5202625;28;20050;-52
2023/09/12 08:18:15;;;;;;;5.85;4.00;;;31.60;85.80;;;33.64;70.72;100622.66;5204717;28;20518;-51
2023/09/12 08:20:47;;;;;;;5.38;3.63;;;31.70;84.60;;;33.97;70.15;100614.28;5203124;28;20403;-51
2023/09/12 08:23:21;;;;;;;4.40;3.28;;;31.90;84.40;;;34.33;70.26;100615.47;5203961;28;20057;-52
2023/09/12 08:25:53;;;;;;;;;;;32.10;84.30;;;34.62;68.96;100608.09;5204442;28;20041;-52
2023/09/12 08:28:26;;;;;;;4.30;3.03;;;32.40;83.50;;;34.98;67.95;100612.88;5204203;28;19932;-52
2023/09/12 08:30:58;;;;;;;5.10;3.22;;;32.60;82.90;;;35.18;67.22;100613.31;5204276;28;20164;-52
2023/09/12 08:33:30;;;;;;;5.00;3.47;;;32.90;81.50;;;35.09;66.42;100620.25;5199679;28;20049;-52
2023/09/12 08:36:03;;;;;;;6.00;3.40;;;32.90;80.50;;;34.72;67.17;100622.75;5200374;28;20499;-52
2023/09/12 08:38:37;;;;;;;4.90;3.33;;;32.70;80.40;;;34.74;68.00;100626.22;5217711;28;20052;-52
2023/09/12 08:41:09;;;;;;;5.85;3.63;;;32.70;81.20;;;35.04;66.63;100627.81;5204089;28;20041;-53
2023/09/12 08:43:42;;;;;;;4.88;3.25;;;32.90;80.20;;;35.39;66.10;100624.44;5201234;28;20064;-53
2023/09/12 08:46:15;;;;;;;4.82;3.40;;;33.10;79.70;;;35.46;65.94;100625.75;5203937;28;20045;-53
2023/09/12 08:48:48;;;;;;;5.18;3.20;;;33.20;79.20;;;35.32;65.72;100622.16;5203555;28;20053;-53
2023/09/12 08:51:21;;;;;;;4.78;3.17;;;33.20;78.50;;;35.09;66.15;100617.53;5203806;28;20424;-53
2023/09/12 08:53:54;;;;;;;6.07;3.53;;;33.00;78.30;;;34.97;66.56;100626.50;5203021;28;20068;-52
2023/09/12 08:56:27;;;;;;;5.63;3.40;;;33.00;78.80;;;34.86;67.21;100629.06;5199578;28;20043;-52
2023/09/12 08:59:01;;;;;;;5.57;3.65;;;33.00;79.20;;;34.52;67.65;100631.38;5195881;28;20041;-54
2023/09/12 09:01:34;;;;;;;5.82;3.58;;;32.80;79.20;;;33.88;69.42;100635.59;5203325;28;20048;-51
2023/09/12 09:04:07;;;;;;;5.28;3.63;;;32.40;79.70;;;32.99;70.61;100635.72;5203433;28;20041;-52
2023/09/12 09:06:42;;;;;;;5.57;3.63;;;31.80;80.10;;;32.35;72.70;100643.13;5201128;28;20046;-52
2023/09/12 09:09:17;;;;;;;5.55;3.30;;;31.30;81.40;;;32.06;74.17;100650.16;5203400;28;20401;-52
2023/09/12 09:11:49;;;;;;;5.55;3.72;;;30.90;82.70;;;32.00;75.20;100639.72;5201679;28;20041;-52
2023/09/12 09:14:21;;;;;;;4.78;3.40;;;30.90;83.80;;;31.97;75.50;100647.13;5202429;28;20115;-52
2023/09/12 09:16:54;;;;;;;5.00;3.60;;;30.80;84.00;;;32.05;76.46;100653.81;5202771;28;20132;-52
2023/09/12 09:19:42;;;;;;;5.78;3.70;;;30.90;84.90;;;31.88;76.65;100651.19;5219731;28;20073;-51
2023/09/12 09:22:15;;;;;;;6.95;4.20;;;30.80;85.60;;;31.63;76.59;100657.06;5213226;28;20077;-52
2023/09/12 09:24:49;;;;;;;7.00;4.20;;;30.60;84.90;;;31.33;77.74;100656.91;5203314;28;20535;-52
2023/09/12 09:27:35;;;;;;;5.80;4.03;;;30.30;85.50;;;31.04;78.89;100647.66;5203309;28;20055;-52
2023/09/12 09:30:09;;;;;;;6.07;4.15;;;30.10;86.30;;;30.97;79.69;100649.81;5192196;28;20049;-52
2023/09/12 09:32:42;;;;;;;5.60;3.80;;;30.00;87.20;;;31.04;80.06;100643.16;5216607;28;20494;-52
2023/09/12 09:35:14;;;;;;;5.53;3.63;;;30.00;87.70;;;31.18;79.85;100644.22;5197318;28;20050;-52
2023/09/12 09:37:46;;;;;;;6.03;4.22;;;30.00;87.80;;;30.98;79.85;100640.78;5201071;28;20118;-51
2023/09/12 09:40:23;;;;;;;6.85;4.00;;;29.90;87.60;;;30.54;81.05;100638.50;5198721;28;20041;-53
2023/09/12 09:42:56;;;;;;;5.95;3.95;;;29.60;88.10;;;30.25;82.46;100639.06;5218183;28;20045;-53
2023/09/12 09:45:28;;;;;;;6.80;4.35;;;29.30;89.30;;;30.08;83.29;100636.34;5198995;28;20419;-52
2023/09/12 09:48:07;;;;;;;6.47;4.10;;;29.20;89.90;;;29.93;84.63;100636.13;5202735;28;20045;-51
2023/09/12 09:50:40;;;;;;;6.28;3.67;;;29.00;90.50;;;30.02;85.25;100633.94;5202496;28;20123;-53
2023/09/12 09:53:12;;;;;;;5.88;3.58;;;29.00;90.90;;;30.14;85.11;100636.06;5198741;28;20377;-52
2023/09/12 09:55:49;;;;;;;5.65;3.90;;;29.10;90.90;;;30.29;84.74;100638.00;5218083;28;20049;-52
2023/09/12 09:58:25;;;;;;;6.45;4.03;;;29.20;91.00;;;30.60;84.28;100642.72;5202860;28;20056;-52
2023/09/12 10:00:57;;;;;;;6.05;4.00;;;29.50;91.00;;;30.70;83.46;100643.13;5201834;28;20069;-52
2023/09/12 10:03:31;;;;;;;6.55;4.30;;;29.60;90.60;;;30.67;83.10;100638.78;5198190;28;20038;-52
2023/09/12 10:06:05;;;;;;;;;;;29.60;90.40;;;30.54;83.42;100638.50;5195204;28;20050;-52
2023/09/12 10:08:40;;;;;;;6.55;4.53;;;29.60;90.50;;;30.50;83.39;100636.03;5202271;28;19964;-52
2023/09/12 10:11:16;;;;;;;8.48;4.55;;;29.50;90.60;;;30.28;83.82;100630.88;5202523;28;20076;-51
2023/09/12 10:13:57;;;;;;;6.35;4.40;;;29.30;90.40;;;30.08;84.43;100633.66;5199806;28;20057;-52
2023/09/12 10:16:34;;;;;;;8.18;4.82;;;29.20;90.70;;;29.89;85.16;100634.53;5202293;28;20088;-52
2023/09/12 10:19:13;;;;;;;6.93;3.85;;;29.00;91.00;;;29.72;86.33;100629.94;5206664;28;20462;-52
2023/09/12 10:21:50;;;;;;;6.35;4.13;;;28.80;91.30;;;29.60;87.11;100624.28;5199171;28;20144;-53
2023/09/12 10:24:24;;;;;;;6.28;4.55;;;28.70;91.60;;;29.53;87.78;100630.88;5196948;28;20065;-54
2023/09/12 10:26:59;;;;;;;8.00;4.50;;;28.70;91.80;;;29.54;87.57;100621.88;5216523;28;20430;-54
2023/09/12 10:29:32;;;;;;;6.72;5.00;;;28.60;92.00;;;29.68;88.19;100625.69;5198066;28;20511;-53
2023/09/12 10:32:12;;;;;;;6.85;4.75;;;28.70;92.30;;;29.87;88.34;100619.44;5201272;28;20422;-54
2023/09/12 10:34:47;;;;;;;7.15;4.40;;;28.80;92.50;;;29.87;87.31;100614.94;5201819;28;20576;-54
2023/09/12 10:37:23;;;;;;;7.97;5.22;;;28.80;92.10;;;29.97;87.94;100621.59;5202002;28;20087;-54